Accueil
METAR-TAF:

METAR-TAF

Aéroports :

Hastings Municipal Airport

Hastings, Nebraska, États-Unis

latitude: 40-36-02N, longitude: 098-25-33W, altitude: 595 m

Observation

Le bulletin a été fait il y a 51 minutes, à 04:53 UTC
Vent 6 kt de sud/sud-est
Température 26°C
Humidité 65%
Pression 1021 hPa
Visibilité: 16.1 km
Ciel clair

METAR: KHSI 250453Z AUTO 16006KT 10SM CLR 26/19 A3016 RMK AO2 SLP191 T02560189

Heure: 00:44 (05:44 UTC)


TAF: absent

Observations et prévisions météorologiques de plus de 4000 aéroports (messages METAR et TAF).

Les stations disponibles sont représentées par des disques jaunes et rouges sur la carte.

Passer la souris dessus pour voir le nom de la station.

Cliquer dessus pour voir les observations et prévisions météorologiques.

Pour changer de carte: cliquez sur les boutons verts avec une croix noire pour zoomer, sur le bouton vert avec un tiret pour effectuer un zoom arrière, ou sur les flèches vertes pour les cartes adjacentes.


METAR-TAF: